Delhi, Canada
Current Conditions -  °F | °C
As of 1:52 AM on Thursday 27 Nov 2014 (Local Time) from CYXU Reporting Station
Snow Showers Snow Showers  
Wind Chill: 30°   Ceiling: 4600
Heat Index: 30°   Visibility: 12mi
Dew Point: 27°   Wind: 2mph
Humidity: 86%   Direction: NA
Pressure: 30.04"   Gusts: NA
Location:  42.85°N, 80.49°W
Report Text: CYXU 270652Z VRB02KT 12SM -SHSN FEW012 BKN046 OVC056 M01/M03 A3004 RMK SC2SC3SC3 CVCTV CLD EMBD SLP184
Loading
Personal Weather Stations






























Interactive Weather Map New forecast layout! Learn more

10-Day Weather Forecast

Advertisements
Track Severe Weather on mobile